| time (UTC) | temp F | wind direction | speed knots | gust knots | rain 1hr in | rain 24hr in | rain mn in | humidity % | barometer mb |
| 20260507041051 | 65 | 69 | 0.9 | 2.6 | 0.00 | 0.06 | 0.06 | 95 | 862.6 |
| 20260507040550 | 65 | 69 | 0.9 | 3.5 | 0.00 | 0.06 | 0.06 | 95 | 862.7 |
| 20260507040048 | 65 | 69 | 1.7 | 3.5 | 0.00 | 0.06 | 0.06 | 95 | 862.6 |
| 20260507035546 | 65 | 67 | 0.9 | 2.6 | 0.00 | 0.06 | 0.06 | 95 | 862.6 |
| 20260507035045 | 65 | 67 | 0.9 | 3.5 | 0.00 | 0.06 | 0.06 | 95 | 862.5 |
| 20260507034552 | 65 | 67 | 0.9 | 3.5 | 0.00 | 0.06 | 0.06 | 95 | 862.4 |
| 20260507034045 | 65 | 67 | 1.7 | 3.5 | 0.00 | 0.06 | 0.06 | 95 | 862.3 |
| 20260507033540 | 65 | 80 | 0.9 | 3.5 | 0.00 | 0.06 | 0.06 | 95 | 862.3 |
| 20260507033044 | 65 | 80 | 0.9 | 3.5 | 0.00 | 0.06 | 0.06 | 95 | 862.1 |
| 20260507032538 | 65 | 80 | 1.7 | 3.5 | 0.00 | 0.06 | 0.06 | 95 | 862.0 |
| 20260507032038 | 65 | 86 | 1.7 | 3.5 | 0.00 | 0.06 | 0.06 | 95 | 861.9 |
| 20260507031539 | 64 | 79 | 1.7 | 4.3 | 0.00 | 0.06 | 0.06 | 95 | 861.9 |
| 20260507031033 | 64 | 63 | 0.9 | 5.2 | 0.00 | 0.06 | 0.06 | 95 | 861.9 |
| 20260507030532 | 64 | 60 | 0.9 | 2.6 | 0.00 | 0.06 | 0.06 | 95 | 861.9 |
| 20260507030033 | 64 | 64 | 0.9 | 3.5 | 0.00 | 0.06 | 0.06 | 95 | 862.0 |
| 20260507025528 | 64 | 71 | 1.7 | 4.3 | 0.00 | 0.06 | 0.06 | 95 | 862.0 |
| 20260507025028 | 64 | 99 | 2.6 | 5.2 | 0.00 | 0.06 | 0.06 | 95 | 861.9 |
| 20260507024526 | 64 | 82 | 1.7 | 2.6 | 0.00 | 0.06 | 0.06 | 95 | 861.8 |
| 20260507024025 | 64 | 81 | 0.9 | 3.5 | 0.00 | 0.06 | 0.06 | 95 | 861.8 |
| 20260507023522 | 65 | 80 | 0.9 | 3.5 | 0.00 | 0.06 | 0.06 | 95 | 861.7 |
| 20260507023021 | 65 | 80 | 0.9 | 2.6 | 0.00 | 0.06 | 0.06 | 95 | 861.6 |
| 20260507022521 | 65 | 79 | 0.9 | 2.6 | 0.00 | 0.06 | 0.06 | 95 | 861.6 |
| 20260507022022 | 65 | 78 | 0.0 | 2.6 | 0.00 | 0.06 | 0.06 | 95 | 861.6 |
| 20260507021520 | 65 | 78 | 0.9 | 2.6 | 0.00 | 0.06 | 0.06 | 95 | 861.5 |
| 20260507021016 | 65 | 75 | 0.9 | 2.6 | 0.00 | 0.06 | 0.06 | 96 | 861.5 |
| 20260507020516 | 65 | 70 | 0.9 | 1.7 | 0.00 | 0.06 | 0.06 | 96 | 861.6 |
| 20260507020013 | 65 | 70 | 0.0 | 0.9 | 0.00 | 0.06 | 0.06 | 95 | 861.5 |
| 20260507015511 | 65 | 70 | 0.0 | 1.7 | 0.00 | 0.06 | 0.06 | 95 | 861.7 |
| 20260507015009 | 66 | 70 | 0.0 | 1.7 | 0.00 | 0.06 | 0.06 | 95 | 861.7 |
| 20260507014508 | 66 | 69 | 0.0 | 0.9 | 0.00 | 0.06 | 0.06 | 96 | 861.7 |
| 20260507014007 | 66 | 69 | 0.0 | 0.9 | 0.00 | 0.06 | 0.06 | 96 | 861.7 |
| 20260507013506 | 66 | 69 | 0.0 | 0.0 | 0.00 | 0.06 | 0.06 | 96 | 861.7 |
| 20260507013005 | 66 | 69 | 0.0 | 0.0 | 0.00 | 0.06 | 0.06 | 96 | 861.6 |
| 20260507012503 | 66 | 69 | 0.0 | 1.7 | 0.00 | 0.06 | 0.06 | 96 | 861.6 |
| 20260507012003 | 66 | 69 | 0.0 | 1.7 | 0.00 | 0.06 | 0.06 | 95 | 861.5 |
| 20260507011600 | 66 | 69 | 0.0 | 1.7 | 0.00 | 0.06 | 0.06 | 95 | 861.5 |
| 20260507011059 | 66 | 69 | 0.0 | 1.7 | 0.00 | 0.06 | 0.06 | 95 | 861.4 |
| 20260507010557 | 66 | 69 | 0.0 | 1.7 | 0.00 | 0.06 | 0.06 | 95 | 861.3 |
| 20260507005554 | 67 | 69 | 0.0 | 2.6 | 0.00 | 0.06 | 0.06 | 95 | 861.2 |
| 20260507005052 | 66 | 60 | 0.0 | 1.7 | 0.00 | 0.06 | 0.06 | 95 | 861.2 |
| 20260507004552 | 66 | 60 | 0.0 | 0.9 | 0.00 | 0.06 | 0.06 | 95 | 861.1 |
| 20260507004049 | 67 | 60 | 0.0 | 2.6 | 0.00 | 0.06 | 0.06 | 95 | 861.1 |
| 20260507003548 | 67 | 60 | 0.0 | 3.5 | 0.01 | 0.06 | 0.06 | 95 | 860.9 |
| 20260507003050 | 67 | 76 | 0.9 | 3.5 | 0.01 | 0.06 | 0.06 | 95 | 861.1 |
| 20260507002546 | 67 | 76 | 0.0 | 0.0 | 0.01 | 0.06 | 0.06 | 95 | 861.0 |
| 20260507002044 | 67 | 76 | 0.0 | 0.9 | 0.02 | 0.06 | 0.06 | 95 | 860.9 |
| 20260507001544 | 67 | 76 | 0.0 | 1.7 | 0.02 | 0.06 | 0.06 | 95 | 860.7 |
| 20260507001041 | 67 | 76 | 0.0 | 1.7 | 0.02 | 0.06 | 0.06 | 95 | 860.5 |
| 20260507000543 | 67 | 71 | 0.0 | 0.0 | 0.02 | 0.06 | 0.06 | 95 | 860.7 |
| 20260507000041 | 68 | 71 | 0.0 | 0.9 | 0.02 | 0.06 | 0.06 | 95 | 861.0 |
| 20260506235536 | 68 | 71 | 0.0 | 0.9 | 0.02 | 0.06 | 0.06 | 95 | 861.2 |
| 20260506235035 | 68 | 67 | 0.0 | 0.9 | 0.05 | 0.06 | 0.06 | 95 | 860.9 |
| 20260506234534 | 68 | 67 | 0.0 | 0.0 | 0.05 | 0.06 | 0.06 | 95 | 860.6 |
| 20260506234032 | 68 | 67 | 0.0 | 0.0 | 0.05 | 0.06 | 0.06 | 95 | 860.4 |
| 20260506233531 | 68 | 67 | 0.0 | 0.0 | 0.04 | 0.05 | 0.05 | 95 | 860.4 |
| 20260506233034 | 68 | 67 | 0.0 | 0.9 | 0.04 | 0.05 | 0.05 | 95 | 860.1 |
| 20260506232527 | 68 | 67 | 0.0 | 4.3 | 0.03 | 0.04 | 0.04 | 95 | 860.1 |
| 20260506232026 | 68 | 67 | 1.7 | 4.3 | 0.03 | 0.04 | 0.04 | 95 | 860.1 |
| 20260506231525 | 68 | 82 | 1.7 | 3.5 | 0.03 | 0.04 | 0.04 | 95 | 860.1 |
| 20260506231024 | 68 | 347 | 0.9 | 2.6 | 0.03 | 0.04 | 0.04 | 94 | 860.4 |
| 20260506230522 | 68 | 277 | 0.0 | 5.2 | 0.03 | 0.04 | 0.04 | 94 | 860.4 |
| 20260506230021 | 69 | 42 | 1.7 | 8.7 | 0.03 | 0.04 | 0.04 | 94 | 860.2 |
| 20260506225522 | 69 | 173 | 3.5 | 12.2 | 0.02 | 0.06 | 0.03 | 93 | 860.3 |
| 20260506225017 | 70 | 209 | 4.3 | 14.8 | 0.00 | 0.04 | 0.01 | 93 | 860.2 |
| 20260506224519 | 72 | 220 | 5.2 | 14.8 | 0.00 | 0.04 | 0.01 | 94 | 859.1 |
| 20260506224016 | 72 | 27 | 0.0 | 7.8 | 0.00 | 0.04 | 0.01 | 94 | 859.3 |
| 20260506223513 | 72 | 218 | 2.6 | 7.8 | 0.00 | 0.04 | 0.01 | 93 | 859.5 |
| 20260506223012 | 73 | 203 | 0.9 | 4.3 | 0.00 | 0.04 | 0.01 | 93 | 859.4 |
| 20260506222510 | 73 | 222 | 0.0 | 3.5 | 0.00 | 0.04 | 0.01 | 93 | 859.1 |
| 20260506222011 | 73 | 170 | 0.9 | 4.3 | 0.00 | 0.04 | 0.01 | 92 | 859.3 |
| 20260506221508 | 73 | 196 | 0.9 | 5.2 | 0.00 | 0.04 | 0.01 | 92 | 859.3 |
| 20260506221009 | 74 | 184 | 1.7 | 7.0 | 0.00 | 0.04 | 0.01 | 91 | 859.2 |
| 20260506220508 | 74 | 175 | 2.6 | 7.0 | 0.00 | 0.04 | 0.01 | 90 | 859.3 |
| 20260506220012 | 75 | 134 | 2.6 | 4.3 | 0.00 | 0.05 | 0.01 | 88 | 859.0 |
| 20260506215501 | 74 | 262 | 0.0 | 2.6 | 0.00 | 0.05 | 0.01 | 88 | 858.8 |
| 20260506215100 | 74 | 225 | 0.0 | 1.7 | 0.00 | 0.05 | 0.01 | 89 | 858.9 |
| 20260506214604 | 74 | 207 | 0.9 | 1.7 | 0.00 | 0.05 | 0.01 | 89 | 859.1 |
| 20260506214058 | 73 | 207 | 0.0 | 1.7 | 0.00 | 0.05 | 0.01 | 89 | 859.4 |
| 20260506213556 | 73 | 207 | 0.0 | 3.5 | 0.00 | 0.05 | 0.01 | 90 | 859.6 |
| 20260506213112 | 73 | 200 | 1.7 | 3.5 | 0.00 | 0.05 | 0.01 | 90 | 859.8 |
| 20260506212553 | 72 | 194 | 0.0 | 0.9 | 0.00 | 0.05 | 0.01 | 90 | 859.7 |
| 20260506212052 | 72 | 194 | 0.0 | 0.9 | 0.00 | 0.05 | 0.01 | 91 | 859.8 |
| 20260506211551 | 72 | 194 | 0.0 | 0.0 | 0.00 | 0.05 | 0.01 | 92 | 859.8 |
| 20260506211050 | 72 | 194 | 0.0 | 1.7 | 0.00 | 0.05 | 0.01 | 93 | 860.0 |
| 20260506210548 | 72 | 194 | 0.0 | 2.6 | 0.00 | 0.05 | 0.01 | 92 | 860.1 |
| 20260506210047 | 72 | 194 | 0.9 | 2.6 | 0.00 | 0.05 | 0.01 | 92 | 860.2 |
| 20260506205544 | 72 | 194 | 0.9 | 2.6 | 0.00 | 0.06 | 0.01 | 93 | 860.2 |
| 20260506205043 | 71 | 51 | 0.0 | 3.5 | 0.00 | 0.06 | 0.01 | 92 | 860.3 |
| 20260506204548 | 71 | 51 | 1.7 | 3.5 | 0.00 | 0.06 | 0.01 | 92 | 860.3 |
| 20260506204041 | 71 | 70 | 0.9 | 3.5 | 0.00 | 0.06 | 0.01 | 93 | 860.3 |
| 20260506203540 | 70 | 155 | 0.9 | 2.6 | 0.01 | 0.06 | 0.01 | 94 | 860.3 |
| 20260506203038 | 70 | 155 | 0.0 | 1.7 | 0.01 | 0.06 | 0.01 | 94 | 860.4 |
| 20260506202539 | 70 | 155 | 0.0 | 1.7 | 0.01 | 0.06 | 0.01 | 94 | 860.4 |
| 20260506202035 | 70 | 155 | 0.0 | 2.6 | 0.01 | 0.06 | 0.01 | 94 | 860.5 |
| 20260506201534 | 70 | 155 | 0.9 | 2.6 | 0.01 | 0.06 | 0.01 | 94 | 860.5 |
| 20260506201034 | 70 | 208 | 0.0 | 0.9 | 0.01 | 0.06 | 0.01 | 94 | 860.6 |
| 20260506200533 | 70 | 208 | 0.0 | 0.0 | 0.01 | 0.06 | 0.01 | 94 | 860.6 |
| 20260506200030 | 70 | 208 | 0.0 | 0.0 | 0.01 | 0.06 | 0.01 | 95 | 860.7 |
| 20260506195528 | 70 | 208 | 0.0 | 0.9 | 0.01 | 0.06 | 0.01 | 94 | 860.7 |
| 20260506195026 | 70 | 208 | 0.0 | 2.6 | 0.01 | 0.06 | 0.01 | 94 | 860.8 |
| 20260506194525 | 70 | 208 | 0.0 | 2.6 | 0.01 | 0.06 | 0.01 | 94 | 860.8 |
| 20260506194024 | 70 | 208 | 0.0 | 1.7 | 0.00 | 0.05 | 0.00 | 94 | 860.9 |
| 20260506193522 | 70 | 208 | 0.0 | 1.7 | 0.00 | 0.05 | 0.00 | 94 | 860.9 |
| 20260506193020 | 71 | 208 | 0.0 | 3.5 | 0.00 | 0.05 | 0.00 | 94 | 860.9 |
| 20260506192524 | 71 | 202 | 0.0 | 4.3 | 0.00 | 0.05 | 0.00 | 94 | 861.0 |
| 20260506192018 | 71 | 198 | 0.9 | 4.3 | 0.00 | 0.05 | 0.00 | 94 | 860.9 |
| 20260506191517 | 71 | 190 | 0.0 | 1.7 | 0.00 | 0.05 | 0.00 | 94 | 861.1 |
| 20260506191015 | 70 | 190 | 0.0 | 1.7 | 0.00 | 0.05 | 0.00 | 94 | 861.2 |
| 20260506190514 | 70 | 190 | 0.9 | 3.5 | 0.00 | 0.05 | 0.00 | 94 | 861.2 |
| 20260506190012 | 70 | 182 | 0.9 | 2.6 | 0.00 | 0.05 | 0.00 | 94 | 861.3 |
| 20260506185510 | 70 | 180 | 0.9 | 2.6 | 0.00 | 0.05 | 0.00 | 94 | 861.3 |
| 20260506185009 | 70 | 169 | 0.0 | 2.6 | 0.00 | 0.05 | 0.00 | 94 | 861.3 |
| 20260506184508 | 71 | 169 | 0.0 | 2.6 | 0.00 | 0.05 | 0.00 | 94 | 861.4 |
| 20260506184006 | 70 | 167 | 0.0 | 0.9 | 0.00 | 0.05 | 0.00 | 93 | 861.5 |
| 20260506183505 | 71 | 167 | 0.0 | 1.7 | 0.00 | 0.05 | 0.00 | 93 | 861.5 |
| 20260506183004 | 71 | 167 | 0.9 | 2.6 | 0.00 | 0.05 | 0.00 | 93 | 861.5 |
| 20260506182501 | 71 | 164 | 0.0 | 2.6 | 0.00 | 0.05 | 0.00 | 93 | 861.5 |
| 20260506182100 | 71 | 164 | 0.0 | 2.6 | 0.00 | 0.05 | 0.00 | 93 | 861.5 |
| 20260506181559 | 71 | 165 | 0.0 | 2.6 | 0.00 | 0.05 | 0.00 | 93 | 861.4 |
| 20260506181058 | 71 | 165 | 0.0 | 2.6 | 0.00 | 0.05 | 0.00 | 92 | 861.5 |
| 20260506180557 | 71 | 164 | 0.0 | 2.6 | 0.00 | 0.05 | 0.00 | 92 | 861.5 |
| 20260506180104 | 71 | 161 | 0.0 | 2.6 | 0.00 | 0.05 | 0.00 | 92 | 861.6 |
| 20260506175552 | 71 | 263 | 0.0 | 3.5 | 0.00 | 0.05 | 0.00 | 92 | 861.6 |
| 20260506175053 | 71 | 265 | 0.0 | 3.5 | 0.00 | 0.05 | 0.00 | 91 | 861.6 |
| 20260506174552 | 71 | 188 | 0.9 | 3.5 | 0.00 | 0.05 | 0.00 | 91 | 861.7 |
| 20260506174049 | 72 | 190 | 0.9 | 2.6 | 0.00 | 0.05 | 0.00 | 91 | 861.6 |
| 20260506173548 | 72 | 178 | 0.9 | 5.2 | 0.00 | 0.05 | 0.00 | 92 | 861.8 |
| 20260506173046 | 72 | 179 | 0.0 | 5.2 | 0.00 | 0.05 | 0.00 | 91 | 861.8 |
| 20260506172546 | 72 | 171 | 0.9 | 2.6 | 0.00 | 0.05 | 0.00 | 92 | 861.8 |
| 20260506172043 | 72 | 269 | 0.0 | 3.5 | 0.00 | 0.05 | 0.00 | 92 | 861.7 |
| 20260506171544 | 72 | 209 | 0.0 | 5.2 | 0.00 | 0.05 | 0.00 | 92 | 861.6 |
| 20260506171043 | 72 | 200 | 0.9 | 5.2 | 0.00 | 0.05 | 0.00 | 91 | 861.6 |
| 20260506170539 | 72 | 159 | 0.0 | 3.5 | 0.00 | 0.05 | 0.00 | 91 | 861.7 |
| 20260506170041 | 72 | 175 | 0.9 | 4.3 | 0.00 | 0.05 | 0.00 | 91 | 861.7 |
| 20260506165536 | 72 | 177 | 0.9 | 5.2 | 0.00 | 0.05 | 0.00 | 90 | 861.7 |
| 20260506165034 | 72 | 169 | 0.9 | 5.2 | 0.00 | 0.05 | 0.00 | 90 | 861.6 |
| 20260506164533 | 73 | 199 | 0.9 | 3.5 | 0.00 | 0.05 | 0.00 | 90 | 861.6 |
| 20260506164032 | 73 | 200 | 1.7 | 3.5 | 0.00 | 0.05 | 0.00 | 90 | 861.7 |
| 20260506163530 | 73 | 202 | 0.9 | 2.6 | 0.00 | 0.05 | 0.00 | 89 | 861.7 |
| 20260506163049 | 73 | 203 | 0.9 | 4.3 | 0.00 | 0.05 | 0.00 | 88 | 861.7 |
| 20260506162528 | 73 | 196 | 0.0 | 2.6 | 0.00 | 0.05 | 0.00 | 88 | 861.7 |
| 20260506162029 | 73 | 195 | 0.9 | 3.5 | 0.00 | 0.05 | 0.00 | 88 | 861.7 |
| 20260506161525 | 73 | 195 | 0.9 | 3.5 | 0.00 | 0.05 | 0.00 | 87 | 861.7 |
| 20260506161022 | 73 | 209 | 0.9 | 3.5 | 0.00 | 0.05 | 0.00 | 87 | 861.7 |
| 20260506160522 | 73 | 207 | 0.0 | 3.5 | 0.00 | 0.05 | 0.00 | 88 | 861.7 |
| 20260506160022 | 73 | 207 | 0.0 | 2.6 | 0.00 | 0.05 | 0.00 | 88 | 861.7 |
| 20260506155520 | 72 | 208 | 0.0 | 3.5 | 0.00 | 0.05 | 0.00 | 88 | 861.7 |
| 20260506155016 | 72 | 209 | 1.7 | 3.5 | 0.00 | 0.05 | 0.00 | 88 | 861.8 |
| 20260506154515 | 72 | 200 | 0.9 | 3.5 | 0.00 | 0.05 | 0.00 | 88 | 861.8 |
| 20260506154014 | 72 | 196 | 0.9 | 3.5 | 0.00 | 0.05 | 0.00 | 88 | 861.8 |
| 20260506153512 | 72 | 194 | 1.7 | 4.3 | 0.00 | 0.05 | 0.00 | 89 | 861.8 |
| 20260506153011 | 72 | 214 | 0.9 | 3.5 | 0.00 | 0.05 | 0.00 | 88 | 861.7 |
| 20260506152509 | 71 | 181 | 0.9 | 3.5 | 0.00 | 0.05 | 0.00 | 89 | 861.8 |
| 20260506152008 | 71 | 179 | 0.9 | 3.5 | 0.00 | 0.05 | 0.00 | 89 | 861.7 |
| 20260506151507 | 71 | 176 | 0.9 | 2.6 | 0.00 | 0.05 | 0.00 | 90 | 861.8 |
| 20260506151005 | 70 | 134 | 0.9 | 1.7 | 0.00 | 0.05 | 0.00 | 91 | 861.7 |
| 20260506150504 | 70 | 71 | 0.0 | 1.7 | 0.00 | 0.05 | 0.00 | 92 | 861.7 |
| 20260506150003 | 69 | 71 | 0.0 | 0.0 | 0.00 | 0.05 | 0.00 | 92 | 861.7 |
| 20260506145603 | 69 | 71 | 0.0 | 0.0 | 0.00 | 0.05 | 0.00 | 92 | 861.6 |
| 20260506145100 | 69 | 71 | 0.0 | 0.9 | 0.00 | 0.05 | 0.00 | 93 | 861.6 |
| 20260506144558 | 69 | 71 | 0.0 | 0.9 | 0.00 | 0.05 | 0.00 | 93 | 861.6 |
| 20260506144056 | 68 | 71 | 0.0 | 0.0 | 0.00 | 0.05 | 0.00 | 93 | 861.6 |
| 20260506143555 | 68 | 71 | 0.0 | 0.0 | 0.00 | 0.05 | 0.00 | 93 | 861.5 |
| 20260506143104 | 68 | 71 | 0.0 | 0.9 | 0.00 | 0.05 | 0.00 | 93 | 861.5 |
| 20260506142553 | 67 | 71 | 0.0 | 0.9 | 0.00 | 0.05 | 0.00 | 93 | 861.5 |
| 20260506142051 | 67 | 71 | 0.0 | 1.7 | 0.00 | 0.05 | 0.00 | 93 | 861.5 |
| 20260506141550 | 67 | 71 | 0.0 | 1.7 | 0.00 | 0.05 | 0.00 | 93 | 861.5 |
| 20260506141050 | 66 | 71 | 0.0 | 2.6 | 0.00 | 0.05 | 0.00 | 94 | 861.4 |
| 20260506140547 | 66 | 70 | 0.9 | 3.5 | 0.00 | 0.05 | 0.00 | 93 | 861.4 |
| 20260506140046 | 66 | 70 | 1.7 | 3.5 | 0.00 | 0.05 | 0.00 | 94 | 861.4 |
| 20260506135544 | 66 | 65 | 1.7 | 3.5 | 0.00 | 0.05 | 0.00 | 94 | 861.2 |
| 20260506135042 | 65 | 61 | 2.6 | 4.3 | 0.00 | 0.05 | 0.00 | 94 | 861.2 |
| 20260506134541 | 65 | 63 | 2.6 | 4.3 | 0.00 | 0.05 | 0.00 | 93 | 861.3 |
| 20260506134039 | 65 | 74 | 2.6 | 4.3 | 0.00 | 0.05 | 0.00 | 93 | 861.2 |
| 20260506133538 | 65 | 64 | 2.6 | 3.5 | 0.00 | 0.05 | 0.00 | 93 | 861.2 |
| 20260506133037 | 65 | 73 | 1.7 | 4.3 | 0.00 | 0.05 | 0.00 | 93 | 861.2 |
| 20260506132535 | 65 | 66 | 1.7 | 4.3 | 0.00 | 0.05 | 0.00 | 93 | 861.1 |
| 20260506132033 | 64 | 59 | 2.6 | 4.3 | 0.00 | 0.05 | 0.00 | 93 | 861.1 |
| 20260506131532 | 64 | 65 | 2.6 | 4.3 | 0.00 | 0.05 | 0.00 | 93 | 861.1 |
| 20260506131031 | 64 | 49 | 2.6 | 5.2 | 0.00 | 0.05 | 0.00 | 93 | 861.1 |
| 20260506130530 | 64 | 54 | 2.6 | 5.2 | 0.00 | 0.05 | 0.00 | 93 | 861.1 |
| 20260506130028 | 64 | 51 | 2.6 | 4.3 | 0.00 | 0.05 | 0.00 | 93 | 861.1 |
| 20260506125526 | 64 | 61 | 1.7 | 4.3 | 0.00 | 0.05 | 0.00 | 93 | 861.2 |
| 20260506125026 | 64 | 67 | 1.7 | 4.3 | 0.00 | 0.05 | 0.00 | 93 | 861.1 |
| 20260506124523 | 63 | 58 | 2.6 | 4.3 | 0.00 | 0.05 | 0.00 | 93 | 861.0 |
| 20260506124022 | 63 | 51 | 2.6 | 4.3 | 0.00 | 0.05 | 0.00 | 93 | 861.0 |
| 20260506123520 | 63 | 62 | 2.6 | 4.3 | 0.00 | 0.05 | 0.00 | 93 | 861.0 |
| 20260506123019 | 63 | 69 | 2.6 | 4.3 | 0.00 | 0.05 | 0.00 | 93 | 861.0 |
| 20260506122520 | 63 | 64 | 2.6 | 4.3 | 0.00 | 0.05 | 0.00 | 93 | 860.9 |
| 20260506122016 | 0 | 0.0 | 0.0 | 0.00 | 0.05 | 0.00 | 860.8 | ||
| 20260506121515 | 0 | 0.0 | 0.0 | 0.00 | 0.05 | 0.00 | 860.8 | ||
| 20260506121013 | 0 | 0.0 | 0.0 | 0.00 | 0.05 | 0.00 | 860.7 | ||
| 20260506120512 | 0 | 0.0 | 0.0 | 0.00 | 0.05 | 0.00 | 860.7 | ||
| 20260506120010 | 0 | 0.0 | 0.0 | 0.00 | 0.05 | 0.00 | 860.6 | ||
| 20260506115509 | 0 | 0.0 | 0.0 | 0.00 | 0.05 | 0.00 | 860.7 | ||
| 20260506115008 | 0 | 0.0 | 0.0 | 0.00 | 0.05 | 0.00 | 860.5 | ||
| 20260506114509 | 0 | 0.0 | 0.0 | 0.00 | 0.05 | 0.00 | 860.5 | ||
| 20260506114005 | 0 | 0.0 | 0.0 | 0.00 | 0.05 | 0.00 | 860.5 | ||
| 20260506113503 | 0 | 0.0 | 0.0 | 0.00 | 0.05 | 0.00 | 860.4 | ||
| 20260506113003 | 0 | 0.0 | 0.0 | 0.00 | 0.05 | 0.00 | 860.4 | ||
| 20260506112600 | 0 | 0.0 | 0.0 | 0.00 | 0.05 | 0.00 | 860.5 | ||
| 20260506112058 | 0 | 0.0 | 0.0 | 0.00 | 0.05 | 0.00 | 860.4 | ||
| 20260506111557 | 0 | 0.0 | 0.0 | 0.00 | 0.05 | 0.00 | 860.4 | ||
| 20260506111056 | 0 | 0.0 | 0.0 | 0.00 | 0.05 | 0.00 | 860.3 | ||
| 20260506110554 | 0 | 0.0 | 0.0 | 0.00 | 0.05 | 0.00 | 860.3 | ||
| 20260506110100 | 0 | 0.0 | 0.0 | 0.00 | 0.05 | 0.00 | 860.3 | ||
| 20260506105553 | 0 | 0.0 | 0.0 | 0.00 | 0.05 | 0.00 | 860.2 | ||
| 20260506105050 | 0 | 0.0 | 0.0 | 0.00 | 0.05 | 0.00 | 860.2 | ||
| 20260506104550 | 0 | 0.0 | 0.0 | 0.00 | 0.05 | 0.00 | 860.2 | ||
| 20260506104047 | 0 | 0.0 | 0.0 | 0.00 | 0.05 | 0.00 | 860.2 | ||
| 20260506103547 | 0 | 0.0 | 0.0 | 0.00 | 0.05 | 0.00 | 860.1 | ||
| 20260506103047 | 0 | 0.0 | 0.0 | 0.00 | 0.05 | 0.00 | 860.1 | ||
| 20260506102543 | 0 | 0.0 | 0.0 | 0.00 | 0.05 | 0.00 | 860.1 | ||
| 20260506102041 | 0 | 0.0 | 0.0 | 0.00 | 0.05 | 0.00 | 860.1 | ||
| 20260506101542 | 0 | 0.0 | 0.0 | 0.00 | 0.05 | 0.00 | 859.9 | ||
| 20260506101040 | 0 | 0.0 | 0.0 | 0.00 | 0.05 | 0.00 | 859.9 | ||
| 20260506100538 | 0 | 0.0 | 0.0 | 0.00 | 0.05 | 0.00 | 859.9 | ||
| 20260506100036 | 0 | 0.0 | 0.0 | 0.00 | 0.05 | 0.00 | 859.8 | ||
| 20260506095536 | 0 | 0.0 | 0.0 | 0.00 | 0.05 | 0.00 | 859.9 | ||
| 20260506095034 | 0 | 0.0 | 0.0 | 0.00 | 0.05 | 0.00 | 859.9 | ||
| 20260506094535 | 0 | 0.0 | 0.0 | 0.00 | 0.05 | 0.00 | 859.9 | ||
| 20260506094029 | 0 | 0.0 | 0.0 | 0.00 | 0.05 | 0.00 | 859.9 | ||
| 20260506093532 | 0 | 0.0 | 0.0 | 0.00 | 0.05 | 0.00 | 859.9 | ||
| 20260506093030 | 0 | 0.0 | 0.0 | 0.00 | 0.05 | 0.00 | 859.9 | ||
| 20260506092525 | 0 | 0.0 | 0.0 | 0.00 | 0.05 | 0.00 | 859.9 | ||
| 20260506092024 | 0 | 0.0 | 0.0 | 0.00 | 0.05 | 0.00 | 860.0 | ||
| 20260506091523 | 0 | 0.0 | 0.0 | 0.00 | 0.05 | 0.00 | 859.9 | ||
| 20260506091021 | 0 | 0.0 | 0.0 | 0.00 | 0.05 | 0.00 | 859.9 | ||
| 20260506090519 | 0 | 0.0 | 0.0 | 0.00 | 0.05 | 0.00 | 859.9 | ||
| 20260506090022 | 0 | 0.0 | 0.0 | 0.00 | 0.05 | 0.00 | 860.0 | ||
| 20260506085519 | 0 | 0.0 | 0.0 | 0.00 | 0.05 | 0.00 | 860.1 | ||
| 20260506085016 | 0 | 0.0 | 0.0 | 0.00 | 0.05 | 0.00 | 860.2 | ||
| 20260506084514 | 0 | 0.0 | 0.0 | 0.00 | 0.05 | 0.00 | 860.2 | ||
| 20260506084012 | 0 | 0.0 | 0.0 | 0.00 | 0.05 | 0.00 | 860.3 | ||
| 20260506083512 | 0 | 0.0 | 0.0 | 0.00 | 0.05 | 0.00 | 860.4 | ||
| 20260506083009 | 0 | 0.0 | 0.0 | 0.00 | 0.05 | 0.00 | 860.5 | ||
| 20260506082507 | -32 | 62 | 1.7 | 4.3 | 0.00 | 0.05 | 0.00 | 860.5 | |
| 20260506082007 | -32 | 62 | 1.7 | 4.3 | 0.00 | 0.05 | 0.00 | 860.5 | |
| 20260506081505 | 63 | 58 | 2.6 | 4.3 | 0.00 | 0.05 | 0.00 | 96 | 860.4 |
| 20260506081005 | 63 | 60 | 2.6 | 4.3 | 0.00 | 0.05 | 0.00 | 96 | 860.4 |
| 20260506080504 | 63 | 66 | 1.7 | 3.5 | 0.00 | 0.05 | 0.00 | 96 | 860.5 |
| 20260506073501 | 63 | 63 | 1.7 | 3.5 | 0.00 | 0.05 | 0.00 | 95 | 861.0 |
| 20260506073109 | 63 | 63 | 1.7 | 3.5 | 0.00 | 0.05 | 0.00 | 95 | 861.0 |
| 20260506072600 | 63 | 60 | 1.7 | 2.6 | 0.00 | 0.05 | 0.00 | 95 | 861.0 |
| 20260506072059 | 63 | 60 | 0.9 | 3.5 | 0.00 | 0.05 | 0.00 | 95 | 861.0 |
| 20260506071600 | 63 | 60 | 1.7 | 3.5 | 0.00 | 0.05 | 0.00 | 95 | 861.0 |
| 20260506071058 | 63 | 70 | 0.9 | 2.6 | 0.00 | 0.05 | 0.00 | 95 | 861.0 |
| 20260506070558 | 63 | 70 | 0.9 | 2.6 | 0.00 | 0.05 | 0.00 | 95 | 861.0 |
| 20260506070109 | 63 | 70 | 0.9 | 2.6 | 0.00 | 0.05 | 0.00 | 95 | 861.1 |
| 20260506062053 | 63 | 68 | 0.9 | 3.5 | 0.00 | 0.05 | 0.00 | 96 | 861.1 |
| 20260506061553 | 63 | 68 | 1.7 | 3.5 | 0.00 | 0.05 | 0.00 | 96 | 861.1 |
| 20260506061053 | 63 | 68 | 1.7 | 3.5 | 0.00 | 0.05 | 0.00 | 96 | 861.1 |
| 20260506060553 | 63 | 68 | 0.9 | 3.5 | 0.00 | 0.05 | 0.00 | 96 | 861.2 |
| 20260506051038 | 64 | 71 | 2.6 | 4.3 | 0.00 | 0.05 | 0.05 | 96 | 861.7 |
| 20260506050535 | 64 | 74 | 1.7 | 4.3 | 0.00 | 0.05 | 0.05 | 95 | 861.7 |
| 20260506045031 | 65 | 63 | 2.6 | 3.5 | 0.00 | 0.05 | 0.05 | 96 | 861.7 |
| 20260506044538 | 65 | 67 | 1.7 | 3.5 | 0.00 | 0.05 | 0.05 | 96 | 861.8 |
| 20260506044027 | 65 | 74 | 1.7 | 4.3 | 0.00 | 0.05 | 0.05 | 96 | 861.8 |
| 20260506043529 | 65 | 66 | 1.7 | 4.3 | 0.00 | 0.05 | 0.05 | 96 | 861.8 |
| 20260506043026 | 65 | 74 | 0.9 | 2.6 | 0.00 | 0.05 | 0.05 | 96 | 861.8 |
| 20260506042523 | 65 | 74 | 1.7 | 3.5 | 0.00 | 0.05 | 0.05 | 96 | 861.8 |
| 20260506042023 | 65 | 69 | 1.7 | 3.5 | 0.00 | 0.05 | 0.05 | 96 | 861.7 |
| 20260506041520 | 65 | 73 | 1.7 | 2.6 | 0.00 | 0.05 | 0.05 | 96 | 861.7 |